Terminal Aerodrome Forecast
Issued by NWS Upton, NY

Home | Current Version | Previous Version | Text Only | Print | Product List | Glossary On
Versions: 1 2 3 4 5 6 7 8 9 10 11 12 13 14 15 16 17 18 19 20 21 22 23 24 25 26 27 28 29 30 31 32 33 34
000
FTUS41 KOKX 210438 AAB
TAFLGA
TAF AMD
KLGA 210438Z 2105/2206 20005KT P6SM SCT004 BKN250
     FM210600 19007KT 3SM BR SCT004 BKN007
      TEMPO 2106/2108 1SM BR BKN004
     FM210800 20007KT 1/2SM FG BKN004
     FM211400 23009KT 3SM BR BKN007
     FM211600 23012G18KT P6SM SCT015 SCT035
     FM211800 24014G20KT P6SM SCT035 BKN250
     FM212100 20010KT P6SM SCT035 BKN100
     FM220200 34012G18KT P6SM VCSH BKN035=

USA.gov is the U.S. government's official web portal to all federal, state and local government web resources and services.